Presque Isle, MI (49777)

8:50 AM EDT on August 05, 2015 (GMT -0400)
Lotus Lake | | Change Station
CLOSE
Current Station
Personal Weather Station
Location: Presque Isle, MI
Elevation: 617 ft
Nearby Weather Stations

Elev 617 ft 45.30 °N, 83.48 °W | Updated 8 minutes ago

Clear
Clear
59.2 °F
Feels Like 59.2 °F
N
3.2
Wind Variable Wind from NNW

Today
High -- | Low -- °F
--% Chance of Precip.
Yesterday
High -- | Low -- °F
Precip. -- in
6:22 AM 8:56 PM
Waning Gibbous, 67% visible
Pressure 30.06 in
Visibility 10.0 miles
Clouds Clear
Dew Point 57 °F
Humidity 92%
Rainfall 0.00 in
Snow Depth Not available.
UV 2 out of 12
Pollen 6.90 out of 12
Air Quality Not available.
Flu Activity Not available.
METAR KPZQ 051234Z AUTO 30006KT 10SM CLR 14/12 A3006 RMK AO2 T01410122

More Conditions Fewer Conditions

Pressure 30.06 in
Visibility 10.0 miles
Clouds Clear
Dew Point 57 °F
Humidity 92%
Rainfall 0.00 in
Snow Depth Not available.
UV 2 out of 12
Pollen 6.90 out of 12
Air Quality Not available.
Flu Activity Not available.
METAR KPZQ 051234Z AUTO 30006KT 10SM CLR 14/12 A3006 RMK AO2 T01410122

More Conditions Fewer Conditions

Nowcast | as of 7:00 am EDT on August 5, 2015

At 8 am...mostly clear. Temperature 55. Northwest winds 7 mph. At 10 am...mostly clear. Temperature 60. Northwest winds 8 mph. At 12 PM...mostly clear. Temperature 65. Northwest winds 11 mph. At 2 PM...mostly clear. Temperature 68. Northwest winds 13 mph.

×

10-Day Weather Forecast

×

Almanac

Astronomy

Aug. 05, 2015 Rise Set
Actual Time
Civil Twilight
Nautical Twilight
Astronomical Twilight
Moon
Length of Visible Light
Length of Day
Tomorrow will be .
, % of the Moon is Illuminated

Today's Extremes

State Highs State Lows

Community

WunderPhotos

Upload Photos

1,844,175 photos uploaded!

WunderBlogs® & News

Nearby

Air Quality

  Air Quality AQ Index Pollutant
Not available.

Snow Depth

Station Depth Elevation

Earthquake Activity

City Distance Mag. Time & Date
Minimum magnitude displayed is 2.5.

Coastal Water Temperatures

Place Temperature

Stations

Nearby Weather Stations

Station Location Temp. Windchill Dew Point Humidity Wind Precip. Elev Updated Type